createdAt,value
2023-04-18T00:01:44.580Z,10.92
2023-04-18T00:04:11.851Z,10.80
2023-04-18T00:06:38.921Z,10.83
2023-04-18T00:09:05.817Z,10.08
2023-04-18T00:11:32.525Z,10.60
2023-04-18T00:13:59.452Z,10.66
2023-04-18T00:16:27.222Z,10.68
2023-04-18T00:18:54.275Z,10.36
2023-04-18T00:21:22.692Z,10.47
2023-04-18T00:23:49.318Z,10.48
2023-04-18T00:26:15.969Z,10.53
2023-04-18T00:28:42.603Z,10.45
2023-04-18T00:31:09.272Z,10.66
2023-04-18T00:33:35.948Z,10.51
2023-04-18T00:36:02.605Z,10.50
2023-04-18T00:38:29.180Z,10.44
2023-04-18T00:40:55.758Z,10.70
2023-04-18T00:43:24.038Z,10.72
2023-04-18T00:45:50.775Z,10.56
2023-04-18T00:48:18.298Z,10.66
2023-04-18T00:50:45.434Z,10.21
2023-04-18T00:53:13.335Z,10.64
2023-04-18T00:55:40.701Z,10.04
2023-04-18T00:58:07.461Z,10.63
2023-04-18T01:00:34.595Z,10.67
2023-04-18T01:03:01.463Z,10.75
2023-04-18T01:05:28.363Z,10.85
2023-04-18T01:08:00.978Z,10.99
2023-04-18T01:10:29.099Z,10.89
2023-04-18T01:13:14.998Z,10.87
2023-04-18T01:15:43.343Z,10.77
2023-04-18T01:18:11.737Z,10.22
2023-04-18T01:20:41.575Z,10.79
2023-04-18T01:23:10.450Z,10.31
2023-04-18T01:25:37.556Z,10.56
2023-04-18T01:28:04.675Z,10.95
2023-04-18T01:30:31.245Z,11.00
2023-04-18T01:32:57.874Z,10.56
2023-04-18T01:35:24.487Z,10.97
2023-04-18T01:37:51.395Z,11.06
2023-04-18T01:40:18.111Z,11.09
2023-04-18T01:42:44.727Z,11.12
2023-04-18T01:45:12.495Z,11.25
2023-04-18T01:47:39.741Z,11.32
2023-04-18T01:50:06.916Z,10.96
2023-04-18T01:52:33.663Z,11.25
2023-04-18T01:55:02.169Z,11.02
2023-04-18T01:57:28.959Z,11.08
2023-04-18T01:59:55.590Z,11.09
2023-04-18T02:02:22.385Z,10.95
2023-04-18T02:04:49.081Z,11.10
2023-04-18T02:07:15.670Z,10.66
2023-04-18T02:09:42.291Z,11.11
2023-04-18T02:12:08.976Z,11.13
2023-04-18T02:14:36.495Z,10.97
2023-04-18T02:17:03.120Z,11.29
2023-04-18T02:19:30.178Z,10.92
2023-04-18T02:21:56.826Z,11.20
2023-04-18T02:24:23.554Z,11.18
2023-04-18T02:26:50.384Z,10.20
2023-04-18T02:29:17.020Z,11.11
2023-04-18T02:31:43.591Z,11.23
2023-04-18T02:34:10.560Z,10.82
2023-04-18T02:36:37.235Z,11.32
2023-04-18T02:39:03.882Z,11.30
2023-04-18T02:41:31.232Z,11.23
2023-04-18T02:43:59.076Z,11.28
2023-04-18T02:46:25.831Z,10.55
2023-04-18T02:48:52.569Z,11.12
2023-04-18T02:51:20.069Z,11.15
2023-04-18T02:53:46.807Z,11.20
2023-04-18T02:56:17.135Z,11.22
2023-04-18T02:58:43.733Z,11.08
2023-04-18T03:01:10.619Z,11.31
2023-04-18T03:03:37.223Z,11.37
2023-04-18T03:06:04.015Z,11.36
2023-04-18T03:08:30.686Z,10.88
2023-04-18T03:10:57.290Z,11.23
2023-04-18T03:13:24.408Z,10.97
2023-04-18T03:15:51.342Z,11.43
2023-04-18T03:18:17.993Z,11.03
2023-04-18T03:20:44.570Z,11.33
2023-04-18T03:23:11.166Z,11.38
2023-04-18T03:25:37.915Z,11.44
2023-04-18T03:28:04.722Z,11.03
2023-04-18T03:30:31.402Z,11.02
2023-04-18T03:32:58.724Z,11.08
2023-04-18T03:35:26.054Z,11.29
2023-04-18T03:37:52.692Z,10.37
2023-04-18T03:40:19.788Z,10.15
2023-04-18T03:42:46.438Z,10.08
2023-04-18T03:45:13.015Z,10.12
2023-04-18T03:47:39.661Z,9.32
2023-04-18T03:50:06.682Z,10.20
2023-04-18T03:52:33.238Z,9.71
2023-04-18T03:54:59.989Z,9.78
2023-04-18T03:57:26.570Z,10.53
2023-04-18T03:59:53.192Z,10.15
2023-04-18T04:02:19.939Z,10.36
2023-04-18T04:04:47.043Z,10.17
2023-04-18T04:07:13.878Z,10.43
2023-04-18T04:09:40.476Z,9.96
2023-04-18T04:12:07.089Z,9.94
2023-04-18T04:14:33.753Z,10.32
2023-04-18T04:17:00.479Z,10.48
2023-04-18T04:19:27.063Z,10.62
2023-04-18T04:21:53.632Z,10.36
2023-04-18T04:24:22.640Z,10.26
2023-04-18T04:26:50.792Z,10.81
2023-04-18T04:29:19.109Z,10.80
2023-04-18T04:31:45.942Z,11.03
2023-04-18T04:34:12.876Z,10.38
2023-04-18T04:36:41.232Z,10.46
2023-04-18T04:39:08.675Z,10.68
2023-04-18T04:41:37.675Z,10.49
2023-04-18T04:44:04.401Z,10.90
2023-04-18T04:46:31.841Z,11.01
2023-04-18T04:48:58.444Z,11.39
2023-04-18T04:51:25.112Z,11.45
2023-04-18T04:53:51.732Z,11.94
2023-04-18T04:56:18.592Z,12.14
2023-04-18T04:58:45.349Z,12.31
2023-04-18T05:01:12.959Z,12.54
2023-04-18T05:03:39.736Z,12.59
2023-04-18T05:06:06.570Z,12.41
2023-04-18T05:08:33.215Z,12.39
2023-04-18T05:10:59.827Z,12.74
2023-04-18T05:13:26.410Z,12.80
2023-04-18T05:15:53.034Z,12.48
2023-04-18T05:18:20.748Z,13.14
2023-04-18T05:20:47.318Z,13.17
2023-04-18T05:23:13.860Z,13.31
2023-04-18T05:25:40.561Z,13.40
2023-04-18T05:28:08.439Z,13.53
2023-04-18T05:30:35.044Z,13.51
2023-04-18T05:33:01.667Z,13.37
2023-04-18T05:35:28.314Z,13.64
2023-04-18T05:37:54.940Z,13.40
2023-04-18T05:40:21.756Z,13.47
2023-04-18T05:42:48.302Z,13.46
2023-04-18T05:45:14.911Z,13.50
2023-04-18T05:47:41.550Z,13.78
2023-04-18T05:50:08.975Z,13.69
2023-04-18T05:52:38.532Z,13.66
2023-04-18T05:55:06.867Z,13.27
2023-04-18T05:57:33.541Z,13.74
2023-04-18T06:00:00.188Z,14.07
2023-04-18T06:02:26.931Z,13.77
2023-04-18T06:04:53.807Z,13.63
2023-04-18T06:07:21.458Z,14.50
2023-04-18T06:09:49.846Z,14.33
2023-04-18T06:12:16.514Z,14.13
2023-04-18T06:14:43.218Z,14.53
2023-04-18T06:17:12.513Z,14.82
2023-04-18T06:19:39.730Z,15.04
2023-04-18T06:22:06.469Z,14.94
2023-04-18T06:24:33.109Z,15.84
2023-04-18T06:26:59.816Z,15.62
2023-04-18T06:29:30.295Z,15.82
2023-04-18T06:31:57.930Z,14.24
2023-04-18T06:34:24.727Z,13.33
2023-04-18T06:36:52.299Z,13.12
2023-04-18T06:39:18.917Z,13.45
2023-04-18T06:41:45.591Z,13.84
2023-04-18T06:44:12.189Z,14.28
2023-04-18T06:46:38.745Z,14.36
2023-04-18T06:49:05.405Z,14.52
2023-04-18T06:51:32.501Z,14.73
2023-04-18T06:53:59.151Z,14.78
2023-04-18T06:56:26.207Z,12.06
2023-04-18T06:58:53.059Z,14.67
2023-04-18T07:01:19.892Z,14.33
2023-04-18T07:03:46.680Z,14.19
2023-04-18T07:06:13.501Z,13.62
2023-04-18T07:08:40.054Z,14.20
2023-04-18T07:11:06.802Z,14.16
2023-04-18T07:13:33.561Z,14.21
2023-04-18T07:16:01.331Z,14.18
2023-04-18T07:18:37.649Z,15.06
2023-04-18T07:21:07.768Z,15.36
2023-04-18T07:23:35.168Z,15.42
2023-04-18T07:26:02.943Z,15.77
2023-04-18T07:28:31.023Z,15.82
2023-04-18T07:30:58.034Z,15.60
2023-04-18T07:33:25.490Z,15.05
2023-04-18T07:35:53.166Z,15.65
2023-04-18T07:38:20.118Z,16.17
2023-04-18T07:40:46.740Z,16.65
2023-04-18T07:43:13.378Z,15.91
2023-04-18T07:45:43.075Z,16.17
2023-04-18T07:48:09.885Z,16.11
2023-04-18T07:50:36.511Z,16.09
2023-04-18T07:53:03.377Z,15.72
2023-04-18T07:55:30.803Z,14.18
2023-04-18T07:57:57.454Z,15.07
2023-04-18T08:00:24.665Z,15.49
2023-04-18T08:02:51.547Z,15.67
2023-04-18T08:05:21.456Z,15.22
2023-04-18T08:07:48.072Z,15.68
2023-04-18T08:10:14.786Z,16.11
2023-04-18T08:12:42.267Z,15.12
2023-04-18T08:15:09.486Z,16.11
2023-04-18T08:17:36.430Z,16.03
2023-04-18T08:20:07.292Z,16.23
2023-04-18T08:22:34.050Z,16.77
2023-04-18T08:25:05.446Z,17.44
2023-04-18T08:27:32.785Z,16.82
2023-04-18T08:29:59.596Z,16.42
2023-04-18T08:32:26.173Z,17.42
2023-04-18T08:34:52.802Z,17.81
2023-04-18T08:37:19.328Z,17.78
2023-04-18T08:39:45.951Z,17.35
2023-04-18T08:42:19.147Z,15.92
2023-04-18T08:44:47.304Z,17.11
2023-04-18T08:47:14.734Z,17.91
2023-04-18T08:49:46.676Z,17.86
2023-04-18T08:52:15.115Z,18.01
2023-04-18T08:54:42.904Z,18.30
2023-04-18T08:57:12.572Z,18.15
2023-04-18T08:59:40.196Z,17.86
2023-04-18T09:02:09.022Z,18.17
2023-04-18T09:04:38.810Z,18.58
2023-04-18T09:07:10.291Z,18.51
2023-04-18T09:09:48.713Z,18.86
2023-04-18T09:12:22.645Z,19.34
2023-04-18T09:14:51.718Z,19.36
2023-04-18T09:17:34.154Z,19.09
2023-04-18T09:20:05.274Z,19.36
2023-04-18T09:22:52.438Z,19.73
2023-04-18T09:25:35.920Z,18.86
2023-04-18T09:28:02.918Z,19.89
2023-04-18T09:30:36.948Z,20.15
2023-04-18T09:33:07.521Z,20.57
2023-04-18T09:35:34.740Z,20.29
2023-04-18T09:38:01.589Z,20.51
2023-04-18T09:40:28.279Z,20.05
2023-04-18T09:42:55.397Z,20.88
2023-04-18T09:45:23.505Z,21.05
2023-04-18T09:47:50.986Z,20.98
2023-04-18T09:50:18.465Z,20.49
2023-04-18T09:52:46.156Z,20.54
2023-04-18T09:55:18.470Z,20.53
2023-04-18T09:57:47.672Z,20.25
2023-04-18T10:00:21.566Z,20.15
2023-04-18T10:02:59.767Z,20.03
2023-04-18T10:05:38.792Z,20.24
2023-04-18T10:08:06.847Z,20.06
2023-04-18T10:10:33.603Z,19.90
2023-04-18T10:13:02.253Z,19.56
2023-04-18T10:15:30.982Z,19.49
2023-04-18T10:18:05.119Z,18.79
2023-04-18T10:20:34.876Z,19.47
2023-04-18T10:23:40.643Z,19.07
2023-04-18T10:26:08.624Z,18.68
2023-04-18T10:28:53.924Z,18.66
2023-04-18T10:31:25.728Z,18.37
2023-04-18T10:34:06.600Z,17.97
2023-04-18T10:36:34.214Z,18.55
2023-04-18T10:39:05.916Z,18.49
2023-04-18T10:41:33.947Z,18.16
2023-04-18T10:44:15.923Z,18.55
2023-04-18T10:46:48.580Z,18.85
2023-04-18T10:49:20.154Z,19.01
2023-04-18T10:51:51.281Z,18.98
2023-04-18T10:54:35.855Z,19.32
2023-04-18T10:57:03.709Z,19.34
2023-04-18T10:59:32.022Z,19.55
2023-04-18T11:02:07.125Z,19.34
2023-04-18T11:04:33.933Z,18.86
2023-04-18T11:07:00.708Z,19.06
2023-04-18T11:09:27.323Z,18.76
2023-04-18T11:12:04.484Z,18.70
2023-04-18T11:14:44.820Z,18.29
2023-04-18T11:17:24.467Z,17.63
2023-04-18T11:19:59.364Z,16.58
2023-04-18T11:22:26.278Z,16.26
2023-04-18T11:24:57.967Z,14.47
2023-04-18T11:27:26.895Z,16.15
2023-04-18T11:29:55.102Z,15.28
2023-04-18T11:32:23.533Z,16.08
2023-04-18T11:34:54.172Z,16.08
2023-04-18T11:37:21.673Z,14.19
2023-04-18T11:39:48.350Z,16.39
2023-04-18T11:42:15.117Z,16.67
2023-04-18T11:44:46.294Z,16.61
2023-04-18T11:47:22.736Z,14.97
2023-04-18T11:49:57.176Z,17.54
2023-04-18T11:52:24.721Z,17.88
2023-04-18T11:54:51.501Z,17.99
2023-04-18T11:57:29.734Z,17.78
2023-04-18T11:59:59.280Z,17.81
2023-04-18T12:02:38.131Z,18.20
2023-04-18T12:05:06.291Z,16.95
2023-04-18T12:07:45.207Z,17.24
2023-04-18T12:10:20.909Z,16.83
2023-04-18T12:12:48.951Z,16.63
2023-04-18T12:15:17.499Z,16.23
2023-04-18T12:17:48.694Z,16.31
2023-04-18T12:20:16.206Z,15.30
2023-04-18T12:22:45.866Z,16.28
2023-04-18T12:25:26.990Z,16.36
2023-04-18T12:27:59.878Z,16.26
2023-04-18T12:30:31.908Z,16.62
2023-04-18T12:33:01.824Z,16.83
2023-04-18T12:35:29.690Z,16.98
2023-04-18T12:37:58.335Z,17.37
2023-04-18T12:40:26.390Z,17.67
2023-04-18T12:42:54.347Z,17.01
2023-04-18T12:45:22.338Z,16.37
2023-04-18T12:47:50.751Z,18.37
2023-04-18T12:50:20.391Z,18.06
2023-04-18T12:52:47.512Z,18.29
2023-04-18T12:55:14.449Z,17.68
2023-04-18T12:57:42.647Z,17.56
2023-04-18T13:00:11.080Z,16.70
2023-04-18T13:02:39.078Z,16.84
2023-04-18T13:05:13.812Z,15.91
2023-04-18T13:07:42.542Z,15.73
2023-04-18T13:10:13.975Z,15.35
2023-04-18T13:12:41.231Z,15.14
2023-04-18T13:15:09.364Z,15.09
2023-04-18T13:17:37.096Z,14.61
2023-04-18T13:20:08.539Z,14.64
2023-04-18T13:22:35.450Z,14.83
2023-04-18T13:25:02.220Z,14.54
2023-04-18T13:27:29.342Z,14.72
2023-04-18T13:29:57.264Z,14.47
2023-04-18T13:32:24.680Z,14.58
2023-04-18T13:36:50.268Z,13.68
2023-04-18T13:39:17.223Z,14.15
2023-04-18T13:41:43.804Z,14.99
2023-04-18T13:44:10.467Z,15.05
2023-04-18T13:46:37.297Z,15.25
2023-04-18T13:49:03.996Z,15.20
2023-04-18T13:51:31.691Z,15.40
2023-04-18T13:54:00.259Z,15.86
2023-04-18T13:56:28.253Z,15.67
2023-04-18T13:58:55.627Z,15.76
2023-04-18T14:01:22.503Z,15.11
2023-04-18T14:03:49.327Z,14.98
2023-04-18T14:06:16.042Z,14.90
2023-04-18T14:08:42.614Z,14.62
2023-04-18T14:11:09.274Z,14.45
2023-04-18T14:13:36.245Z,14.55
2023-04-18T14:16:03.280Z,14.59
2023-04-18T14:18:29.988Z,14.77
2023-04-18T14:20:56.620Z,14.74
2023-04-18T14:23:23.196Z,14.07
2023-04-18T14:25:49.785Z,14.72
2023-04-18T14:28:19.052Z,14.82
2023-04-18T14:30:45.752Z,14.74
2023-04-18T14:33:12.676Z,14.50
2023-04-18T14:35:39.288Z,14.43
2023-04-18T14:38:05.854Z,14.50
2023-04-18T14:40:33.210Z,14.64
2023-04-18T14:42:59.876Z,14.24
2023-04-18T14:45:26.588Z,14.91
2023-04-18T14:47:53.609Z,14.64
2023-04-18T14:50:20.664Z,14.53
2023-04-18T14:52:47.327Z,14.72
2023-04-18T14:55:13.880Z,14.34
2023-04-18T14:57:40.489Z,14.09
2023-04-18T15:00:10.795Z,13.70
2023-04-18T15:02:37.774Z,13.69
2023-04-18T15:05:05.226Z,13.57
2023-04-18T15:07:31.892Z,13.39
2023-04-18T15:09:58.622Z,12.60
2023-04-18T15:12:25.449Z,13.09
2023-04-18T15:14:52.245Z,12.97
2023-04-18T15:17:18.832Z,12.86
2023-04-18T15:19:46.123Z,12.91
2023-04-18T15:22:12.746Z,10.97
2023-04-18T15:24:39.359Z,13.05
2023-04-18T15:27:06.910Z,13.22
2023-04-18T15:29:33.974Z,12.93
2023-04-18T15:32:01.490Z,13.33
2023-04-18T15:34:28.180Z,13.54
2023-04-18T15:36:54.759Z,13.62
2023-04-18T15:39:23.520Z,13.66
2023-04-18T15:41:54.580Z,13.99
2023-04-18T15:44:22.013Z,13.94
2023-04-18T15:46:49.788Z,14.24
2023-04-18T15:49:16.581Z,14.40
2023-04-18T15:51:43.169Z,14.51
2023-04-18T15:54:09.769Z,14.69
2023-04-18T15:56:36.981Z,14.80
2023-04-18T15:59:05.831Z,14.91
2023-04-18T16:01:33.141Z,14.67
2023-04-18T16:03:59.938Z,14.67
2023-04-18T16:06:26.631Z,14.15
2023-04-18T16:08:53.211Z,13.85
2023-04-18T16:11:21.600Z,14.18
2023-04-18T16:13:48.177Z,14.19
2023-04-18T16:16:15.038Z,13.87
2023-04-18T16:18:41.660Z,14.15
2023-04-18T16:21:08.245Z,14.34
2023-04-18T16:23:34.877Z,14.03
2023-04-18T16:26:01.452Z,13.82
2023-04-18T16:28:29.210Z,13.68
2023-04-18T16:30:55.960Z,13.66
2023-04-18T16:33:25.818Z,13.04
2023-04-18T16:35:53.076Z,13.45
2023-04-18T16:38:19.897Z,11.19
2023-04-18T16:40:46.503Z,13.41
2023-04-18T16:43:13.072Z,13.55
2023-04-18T16:45:39.648Z,13.51
2023-04-18T16:48:06.355Z,13.31
2023-04-18T16:50:33.047Z,13.10
2023-04-18T16:52:59.743Z,13.40
2023-04-18T16:55:26.507Z,13.37
2023-04-18T16:57:53.097Z,13.35
2023-04-18T17:00:19.849Z,13.37
2023-04-18T17:02:47.161Z,13.13
2023-04-18T17:05:13.909Z,13.41
2023-04-18T17:07:40.560Z,13.37
2023-04-18T17:10:09.822Z,13.31
2023-04-18T17:12:36.927Z,13.30
2023-04-18T17:15:04.088Z,13.51
2023-04-18T17:17:30.756Z,12.83
2023-04-18T17:19:58.679Z,13.25
2023-04-18T17:22:25.295Z,13.10
2023-04-18T17:24:51.885Z,13.24
2023-04-18T17:27:18.525Z,13.40
2023-04-18T17:29:45.682Z,12.96
2023-04-18T17:32:12.366Z,13.36
2023-04-18T17:34:38.991Z,13.33
2023-04-18T17:37:06.263Z,13.14
2023-04-18T17:39:33.017Z,12.96
2023-04-18T17:42:00.272Z,13.40
2023-04-18T17:44:27.192Z,13.37
2023-04-18T17:46:53.782Z,13.18
2023-04-18T17:49:21.351Z,13.16
2023-04-18T17:51:47.984Z,12.94
2023-04-18T17:54:14.675Z,12.86
2023-04-18T17:56:41.335Z,12.56
2023-04-18T17:59:08.052Z,11.95
2023-04-18T18:01:34.811Z,13.11
2023-04-18T18:04:01.866Z,13.16
2023-04-18T18:06:28.529Z,12.93
2023-04-18T18:08:56.069Z,12.93
2023-04-18T18:11:23.789Z,10.96
2023-04-18T18:13:54.545Z,12.95
2023-04-18T18:16:24.832Z,12.61
2023-04-18T18:18:51.508Z,12.30
2023-04-18T18:21:18.768Z,11.74
2023-04-18T18:23:45.985Z,11.82
2023-04-18T18:26:14.715Z,11.93
2023-04-18T18:28:41.297Z,11.94
2023-04-18T18:31:08.120Z,11.93
2023-04-18T18:33:34.764Z,11.94
2023-04-18T18:36:01.596Z,12.09
2023-04-18T18:38:28.174Z,12.09
2023-04-18T18:40:54.903Z,12.11
2023-04-18T18:43:26.261Z,12.25
2023-04-18T18:45:53.160Z,12.10
2023-04-18T18:48:19.956Z,11.76
2023-04-18T18:50:46.582Z,12.00
2023-04-18T18:53:16.797Z,12.05
2023-04-18T18:55:44.321Z,12.16
2023-04-18T18:58:11.759Z,12.21
2023-04-18T19:00:38.793Z,12.26
2023-04-18T19:03:05.868Z,11.70
2023-04-18T19:05:32.830Z,12.22
2023-04-18T19:07:59.724Z,11.98
2023-04-18T19:10:26.536Z,11.45
2023-04-18T19:12:53.394Z,11.66
2023-04-18T19:15:20.198Z,11.91
2023-04-18T19:17:47.092Z,11.97
2023-04-18T19:20:13.972Z,11.95
2023-04-18T19:22:40.764Z,11.60
2023-04-18T19:25:08.601Z,11.85
2023-04-18T19:27:36.028Z,11.86
2023-04-18T19:30:03.234Z,11.11
2023-04-18T19:32:31.974Z,11.56
2023-04-18T19:34:59.756Z,11.41
2023-04-18T19:37:26.517Z,11.45
2023-04-18T19:39:53.229Z,11.29
2023-04-18T19:42:20.715Z,11.60
2023-04-18T19:44:47.446Z,10.84
2023-04-18T19:47:14.319Z,11.76
2023-04-18T19:49:41.027Z,11.84
2023-04-18T19:52:07.935Z,11.62
2023-04-18T19:54:34.858Z,11.82
2023-04-18T19:57:02.580Z,11.29
2023-04-18T19:59:29.369Z,11.78
2023-04-18T20:01:58.004Z,11.64
2023-04-18T20:04:27.206Z,11.51
2023-04-18T20:06:55.506Z,11.48
2023-04-18T20:09:22.109Z,11.51
2023-04-18T20:11:49.089Z,11.39
2023-04-18T20:14:15.853Z,11.35
2023-04-18T20:16:46.682Z,11.22
2023-04-18T20:19:13.993Z,11.27
2023-04-18T20:21:41.200Z,11.54
2023-04-18T20:24:09.701Z,11.59
2023-04-18T20:26:36.521Z,11.54
2023-04-18T20:29:03.974Z,11.63
2023-04-18T20:31:30.673Z,11.26
2023-04-18T20:33:57.305Z,11.60
2023-04-18T20:36:24.482Z,11.62
2023-04-18T20:38:51.172Z,11.63
2023-04-18T20:41:24.194Z,11.65
2023-04-18T20:43:53.705Z,11.31
2023-04-18T20:46:20.493Z,11.60
2023-04-18T20:48:47.093Z,11.69
2023-04-18T20:51:13.655Z,11.72
2023-04-18T20:53:40.239Z,11.68
2023-04-18T20:56:06.913Z,11.83
2023-04-18T20:58:33.503Z,11.70
2023-04-18T21:01:00.090Z,11.89
2023-04-18T21:03:26.933Z,11.53
2023-04-18T21:05:53.575Z,11.86
2023-04-18T21:08:20.225Z,11.80
2023-04-18T21:10:46.771Z,11.95
2023-04-18T21:13:13.309Z,11.96
2023-04-18T21:15:42.019Z,11.77
2023-04-18T21:18:08.706Z,11.82
2023-04-18T21:20:36.817Z,11.85
2023-04-18T21:23:03.444Z,11.41
2023-04-18T21:25:30.054Z,11.84
2023-04-18T21:27:56.746Z,11.86
2023-04-18T21:30:23.451Z,11.84
2023-04-18T21:32:51.563Z,11.84
2023-04-18T21:35:20.156Z,11.71
2023-04-18T21:37:47.378Z,11.68
2023-04-18T21:40:14.659Z,11.75
2023-04-18T21:42:41.334Z,11.79
2023-04-18T21:45:09.675Z,11.78
2023-04-18T21:47:36.451Z,11.47
2023-04-18T21:50:03.696Z,11.55
2023-04-18T21:52:30.332Z,11.60
2023-04-18T21:54:56.888Z,10.79
2023-04-18T21:57:23.488Z,11.82
2023-04-18T21:59:50.303Z,11.85
2023-04-18T22:02:17.006Z,11.31
2023-04-18T22:04:44.192Z,11.75
2023-04-18T22:07:12.333Z,11.80
2023-04-18T22:09:38.913Z,11.81
2023-04-18T22:12:05.618Z,11.84
2023-04-18T22:14:32.332Z,11.86
2023-04-18T22:16:59.362Z,11.78
2023-04-18T22:19:27.632Z,11.79
2023-04-18T22:21:54.204Z,11.33
2023-04-18T22:24:21.989Z,11.44
2023-04-18T22:26:48.788Z,10.80
2023-04-18T22:29:15.370Z,11.33
2023-04-18T22:31:42.132Z,11.52
2023-04-18T22:34:08.660Z,11.60
2023-04-18T22:36:35.288Z,11.19
2023-04-18T22:39:01.836Z,11.70
2023-04-18T22:41:28.459Z,9.81
2023-04-18T22:43:55.058Z,11.79
2023-04-18T22:46:21.847Z,11.71
2023-04-18T22:48:49.403Z,11.74
2023-04-18T22:51:18.242Z,11.81
2023-04-18T22:53:44.826Z,11.70
2023-04-18T22:56:11.487Z,11.31
2023-04-18T22:58:38.115Z,11.59
2023-04-18T23:01:04.823Z,11.60
2023-04-18T23:03:34.394Z,11.58
2023-04-18T23:06:01.443Z,11.58
2023-04-18T23:08:28.445Z,11.49
2023-04-18T23:10:55.007Z,11.33
2023-04-18T23:13:21.571Z,11.25
2023-04-18T23:15:48.264Z,11.25
2023-04-18T23:18:15.079Z,11.16
2023-04-18T23:20:41.664Z,11.17
2023-04-18T23:23:08.254Z,11.06
2023-04-18T23:25:34.853Z,11.05
2023-04-18T23:28:01.590Z,11.01
2023-04-18T23:30:28.189Z,11.27
2023-04-18T23:32:54.760Z,11.09
2023-04-18T23:35:21.410Z,11.33
2023-04-18T23:37:48.025Z,11.28
2023-04-18T23:40:14.675Z,11.20
2023-04-18T23:42:41.247Z,11.25
2023-04-18T23:45:08.230Z,10.78
2023-04-18T23:47:34.907Z,11.19
2023-04-18T23:50:01.546Z,10.60
2023-04-18T23:52:28.154Z,10.87
2023-04-18T23:54:55.496Z,11.16
2023-04-18T23:57:22.132Z,11.21
2023-04-18T23:59:48.900Z,11.32
